createdAt,value
2023-05-15T00:01:45.256Z,6.40
2023-05-15T00:04:11.720Z,6.57
2023-05-15T00:06:38.135Z,6.72
2023-05-15T00:09:04.489Z,6.95
2023-05-15T00:11:30.862Z,6.63
2023-05-15T00:13:57.182Z,7.20
2023-05-15T00:16:24.225Z,6.80
2023-05-15T00:18:50.617Z,8.10
2023-05-15T00:21:17.093Z,7.07
2023-05-15T00:23:43.597Z,7.28
2023-05-15T00:26:09.928Z,7.03
2023-05-15T00:28:36.252Z,7.18
2023-05-15T00:31:02.614Z,6.40
2023-05-15T00:33:28.957Z,6.78
2023-05-15T00:35:55.228Z,6.85
2023-05-15T00:38:21.468Z,6.72
2023-05-15T00:40:48.472Z,6.25
2023-05-15T00:43:15.224Z,6.40
2023-05-15T00:45:42.178Z,7.13
2023-05-15T00:48:09.882Z,6.93
2023-05-15T00:50:36.410Z,6.60
2023-05-15T00:53:03.556Z,6.30
2023-05-15T00:55:31.108Z,7.03
2023-05-15T00:58:00.874Z,6.75
2023-05-15T01:00:27.724Z,7.35
2023-05-15T01:02:54.515Z,7.63
2023-05-15T01:05:20.952Z,6.88
2023-05-15T01:07:52.770Z,7.93
2023-05-15T01:10:19.706Z,7.47
2023-05-15T01:12:47.288Z,6.65
2023-05-15T01:15:13.649Z,7.38
2023-05-15T01:17:40.408Z,7.90
2023-05-15T01:20:09.384Z,8.50
2023-05-15T01:22:42.366Z,7.45
2023-05-15T01:25:29.579Z,7.28
2023-05-15T01:27:57.742Z,7.13
2023-05-15T01:30:24.001Z,7.28
2023-05-15T01:32:53.376Z,7.47
2023-05-15T01:35:33.061Z,7.18
2023-05-15T01:38:04.477Z,7.85
2023-05-15T01:40:30.821Z,7.20
2023-05-15T01:42:59.784Z,8.02
2023-05-15T01:45:27.006Z,7.57
2023-05-15T01:47:54.395Z,7.38
2023-05-15T01:50:21.348Z,7.72
2023-05-15T01:52:53.454Z,7.30
2023-05-15T01:55:22.227Z,7.55
2023-05-15T01:57:50.256Z,7.53
2023-05-15T02:00:17.059Z,7.13
2023-05-15T02:02:43.706Z,6.60
2023-05-15T02:05:10.194Z,7.97
2023-05-15T02:07:37.104Z,8.00
2023-05-15T02:10:03.579Z,7.55
2023-05-15T02:12:30.702Z,7.30
2023-05-15T02:14:57.989Z,7.72
2023-05-15T02:17:24.323Z,7.13
2023-05-15T02:19:50.798Z,6.90
2023-05-15T02:22:17.155Z,6.72
2023-05-15T02:24:43.429Z,6.88
2023-05-15T02:27:27.256Z,7.43
2023-05-15T02:30:19.045Z,7.43
2023-05-15T02:32:59.370Z,6.90
2023-05-15T02:35:33.471Z,6.68
2023-05-15T02:38:01.200Z,6.45
2023-05-15T02:40:28.576Z,7.07
2023-05-15T02:42:55.376Z,6.13
2023-05-15T02:45:22.171Z,6.10
2023-05-15T02:47:50.455Z,6.70
2023-05-15T02:50:17.224Z,5.72
2023-05-15T02:52:43.816Z,6.07
2023-05-15T02:55:10.406Z,6.22
2023-05-15T02:57:36.752Z,6.85
2023-05-15T03:00:06.613Z,6.13
2023-05-15T03:02:33.021Z,6.80
2023-05-15T03:04:59.350Z,6.47
2023-05-15T03:07:25.835Z,6.75
2023-05-15T03:09:52.145Z,6.40
2023-05-15T03:12:18.413Z,6.40
2023-05-15T03:14:44.692Z,6.55
2023-05-15T03:17:11.174Z,6.75
2023-05-15T03:19:37.480Z,6.78
2023-05-15T03:22:04.046Z,6.72
2023-05-15T03:24:30.524Z,6.38
2023-05-15T03:26:56.831Z,7.05
2023-05-15T03:29:23.186Z,6.30
2023-05-15T03:31:49.543Z,6.20
2023-05-15T03:34:15.950Z,6.68
2023-05-15T03:36:42.263Z,6.55
2023-05-15T03:39:08.842Z,7.00
2023-05-15T03:41:35.184Z,6.40
2023-05-15T03:44:01.568Z,6.85
2023-05-15T03:46:27.894Z,5.82
2023-05-15T03:48:54.811Z,6.40
2023-05-15T03:51:21.317Z,6.47
2023-05-15T03:53:47.592Z,6.65
2023-05-15T03:56:13.876Z,6.60
2023-05-15T03:58:40.860Z,6.45
2023-05-15T04:01:08.014Z,6.60
2023-05-15T04:03:34.456Z,6.90
2023-05-15T04:06:00.781Z,6.72
2023-05-15T04:08:27.038Z,6.85
2023-05-15T04:10:53.545Z,7.50
2023-05-15T04:13:19.831Z,7.90
2023-05-15T04:15:46.559Z,8.13
2023-05-15T04:18:12.870Z,8.15
2023-05-15T04:20:39.191Z,8.38
2023-05-15T04:23:05.736Z,8.10
2023-05-15T04:25:32.347Z,9.93
2023-05-15T04:27:58.666Z,8.35
2023-05-15T04:30:25.021Z,9.38
2023-05-15T04:32:54.360Z,9.18
2023-05-15T04:35:20.755Z,9.25
2023-05-15T04:37:47.572Z,10.43
2023-05-15T04:40:16.237Z,10.18
2023-05-15T04:42:42.656Z,10.00
2023-05-15T04:45:09.432Z,9.63
2023-05-15T04:47:35.881Z,9.40
2023-05-15T04:50:02.201Z,9.55
2023-05-15T04:52:28.573Z,10.63
2023-05-15T04:54:55.782Z,10.07
2023-05-15T04:57:22.323Z,10.80
2023-05-15T04:59:48.661Z,10.10
2023-05-15T05:02:14.979Z,9.93
2023-05-15T05:04:42.447Z,9.50
2023-05-15T05:07:08.871Z,9.40
2023-05-15T05:09:35.128Z,9.93
2023-05-15T05:12:02.267Z,10.15
2023-05-15T05:14:28.711Z,10.98
2023-05-15T05:16:55.060Z,11.25
2023-05-15T05:19:21.393Z,10.65
2023-05-15T05:21:47.693Z,11.23
2023-05-15T05:24:13.979Z,10.75
2023-05-15T05:26:43.287Z,11.18
2023-05-15T05:29:09.600Z,9.68
2023-05-15T05:31:35.961Z,11.00
2023-05-15T05:34:02.340Z,11.27
2023-05-15T05:36:28.642Z,11.63
2023-05-15T05:38:55.046Z,11.07
2023-05-15T05:41:21.650Z,11.35
2023-05-15T05:43:47.934Z,12.02
2023-05-15T05:46:14.378Z,13.07
2023-05-15T05:48:40.718Z,12.20
2023-05-15T05:51:06.984Z,13.05
2023-05-15T05:53:33.310Z,12.63
2023-05-15T05:55:59.586Z,12.90
2023-05-15T05:58:26.570Z,13.90
2023-05-15T06:00:53.206Z,13.15
2023-05-15T06:03:20.239Z,13.38
2023-05-15T06:05:46.731Z,13.00
2023-05-15T06:08:13.046Z,13.88
2023-05-15T06:10:39.941Z,14.45
2023-05-15T06:13:06.567Z,13.57
2023-05-15T06:15:32.874Z,14.30
2023-05-15T06:17:59.246Z,13.32
2023-05-15T06:20:25.832Z,13.70
2023-05-15T06:22:52.264Z,13.95
2023-05-15T06:25:18.884Z,13.85
2023-05-15T06:27:45.177Z,14.90
2023-05-15T06:30:12.171Z,15.25
2023-05-15T06:32:38.512Z,13.55
2023-05-15T06:35:05.344Z,15.55
2023-05-15T06:37:31.723Z,15.70
2023-05-15T06:39:58.050Z,16.65
2023-05-15T06:42:24.384Z,15.35
2023-05-15T06:44:50.728Z,16.33
2023-05-15T06:47:17.034Z,15.02
2023-05-15T06:49:43.347Z,15.95
2023-05-15T06:52:09.811Z,16.55
2023-05-15T06:54:36.223Z,16.52
2023-05-15T06:57:02.557Z,17.17
2023-05-15T06:59:28.893Z,15.73
2023-05-15T07:01:56.102Z,17.38
2023-05-15T07:04:23.632Z,15.07
2023-05-15T07:06:50.269Z,16.23
2023-05-15T07:09:16.853Z,16.83
2023-05-15T07:11:43.197Z,17.52
2023-05-15T07:14:09.758Z,17.33
2023-05-15T07:16:36.071Z,17.35
2023-05-15T07:19:02.682Z,18.63
2023-05-15T07:21:29.049Z,18.38
2023-05-15T07:23:55.401Z,17.60
2023-05-15T07:26:32.832Z,18.58
2023-05-15T07:29:04.015Z,18.40
2023-05-15T07:31:31.440Z,19.92
2023-05-15T07:33:57.869Z,18.98
2023-05-15T07:36:24.264Z,18.95
2023-05-15T07:38:50.589Z,18.88
2023-05-15T07:41:16.968Z,19.38
2023-05-15T07:43:43.245Z,20.88
2023-05-15T07:46:09.589Z,21.33
2023-05-15T07:48:35.910Z,21.58
2023-05-15T07:51:02.417Z,21.77
2023-05-15T07:53:28.831Z,20.55
2023-05-15T07:55:55.128Z,21.05
2023-05-15T07:58:21.549Z,21.30
2023-05-15T08:00:47.872Z,20.40
2023-05-15T08:03:14.385Z,20.52
2023-05-15T08:05:40.960Z,21.17
2023-05-15T08:08:09.426Z,21.27
2023-05-15T08:10:35.735Z,20.55
2023-05-15T08:13:02.079Z,22.50
2023-05-15T08:15:29.245Z,20.92
2023-05-15T08:17:55.595Z,21.92
2023-05-15T08:20:21.900Z,21.13
2023-05-15T08:22:48.270Z,21.65
2023-05-15T08:25:14.546Z,22.15
2023-05-15T08:27:40.854Z,22.48
2023-05-15T08:30:07.505Z,22.45
2023-05-15T08:32:33.883Z,21.17
2023-05-15T08:35:00.229Z,21.45
2023-05-15T08:37:26.491Z,21.65
2023-05-15T08:39:52.869Z,22.05
2023-05-15T08:42:28.630Z,21.60
2023-05-15T08:44:55.773Z,22.85
2023-05-15T08:47:22.439Z,22.15
2023-05-15T08:49:57.769Z,21.27
2023-05-15T08:52:25.521Z,22.10
2023-05-15T08:54:52.346Z,21.05
2023-05-15T08:57:19.097Z,21.10
2023-05-15T08:59:46.271Z,21.70
2023-05-15T09:02:12.711Z,21.30
2023-05-15T09:04:39.112Z,21.83
2023-05-15T09:07:06.633Z,21.27
2023-05-15T09:09:34.199Z,22.25
2023-05-15T09:12:02.339Z,23.35
2023-05-15T09:14:28.617Z,22.30
2023-05-15T09:16:55.019Z,21.23
2023-05-15T09:19:22.457Z,22.00
2023-05-15T09:21:49.312Z,21.55
2023-05-15T09:24:23.358Z,21.73
2023-05-15T09:27:06.277Z,22.13
2023-05-15T09:29:33.486Z,23.38
2023-05-15T09:32:04.353Z,22.58
2023-05-15T09:34:35.167Z,22.23
2023-05-15T09:37:02.582Z,23.98
2023-05-15T09:39:28.930Z,23.90
2023-05-15T09:42:05.469Z,23.10
2023-05-15T09:44:31.841Z,22.83
2023-05-15T09:46:58.191Z,23.15
2023-05-15T09:49:24.572Z,21.38
2023-05-15T09:51:51.385Z,22.08
2023-05-15T09:54:18.724Z,22.30
2023-05-15T09:56:46.158Z,21.73
2023-05-15T09:59:13.353Z,21.35
2023-05-15T10:01:42.128Z,21.92
2023-05-15T10:04:09.106Z,20.90
2023-05-15T10:06:36.814Z,21.30
2023-05-15T10:09:03.780Z,19.90
2023-05-15T10:11:30.370Z,19.95
2023-05-15T10:13:57.629Z,19.88
2023-05-15T10:16:24.644Z,18.90
2023-05-15T10:18:51.587Z,17.73
2023-05-15T10:21:20.023Z,18.05
2023-05-15T10:23:47.624Z,19.40
2023-05-15T10:26:32.541Z,18.00
2023-05-15T10:28:59.690Z,18.67
2023-05-15T10:31:26.323Z,18.73
2023-05-15T10:33:54.170Z,17.73
2023-05-15T10:36:20.640Z,18.10
2023-05-15T10:38:47.589Z,17.73
2023-05-15T10:41:17.982Z,17.15
2023-05-15T10:43:44.622Z,17.67
2023-05-15T10:46:11.508Z,18.17
2023-05-15T10:48:38.378Z,16.83
2023-05-15T10:51:04.727Z,15.77
2023-05-15T10:53:31.918Z,15.77
2023-05-15T10:55:58.646Z,16.73
2023-05-15T10:58:25.013Z,16.25
2023-05-15T11:00:51.318Z,15.88
2023-05-15T11:03:48.006Z,15.38
2023-05-15T11:06:15.465Z,14.23
2023-05-15T11:08:42.966Z,14.20
2023-05-15T11:11:09.257Z,14.27
2023-05-15T11:13:54.238Z,13.07
2023-05-15T11:16:52.659Z,12.68
2023-05-15T11:19:28.248Z,12.93
2023-05-15T11:24:23.389Z,11.80
2023-05-15T11:26:52.093Z,10.82
2023-05-15T11:29:19.059Z,11.20
2023-05-15T11:31:45.342Z,10.25
2023-05-15T11:34:11.669Z,10.23
2023-05-15T11:36:39.844Z,10.20
2023-05-15T11:39:11.997Z,9.57
2023-05-15T11:41:39.311Z,9.73
2023-05-15T11:44:05.701Z,8.90
2023-05-15T11:46:32.968Z,9.20
2023-05-15T11:49:00.234Z,9.80
2023-05-15T11:51:27.556Z,8.88
2023-05-15T11:53:54.962Z,9.02
2023-05-15T11:56:25.811Z,9.23
2023-05-15T11:58:54.372Z,8.45
2023-05-15T12:01:20.823Z,8.50
2023-05-15T12:03:48.747Z,9.15
2023-05-15T12:06:15.453Z,9.45
2023-05-15T12:08:45.262Z,9.30
2023-05-15T12:11:12.102Z,9.38
2023-05-15T12:13:38.398Z,8.93
2023-05-15T12:16:05.232Z,9.35
2023-05-15T12:18:32.453Z,9.18
2023-05-15T12:20:59.097Z,9.15
2023-05-15T12:23:26.852Z,8.82
2023-05-15T12:25:57.758Z,8.90
2023-05-15T12:28:24.175Z,8.38
2023-05-15T12:30:50.934Z,8.48
2023-05-15T12:33:17.594Z,9.43
2023-05-15T12:35:49.486Z,8.15
2023-05-15T12:38:16.657Z,8.90
2023-05-15T12:40:43.575Z,9.68
2023-05-15T12:43:10.795Z,8.73
2023-05-15T12:45:40.637Z,9.90
2023-05-15T12:48:08.047Z,9.35
2023-05-15T12:50:35.772Z,8.50
2023-05-15T12:53:03.048Z,9.32
2023-05-15T12:55:33.474Z,9.40
2023-05-15T12:58:02.136Z,8.93
2023-05-15T13:00:29.065Z,8.77
2023-05-15T13:02:56.486Z,8.48
2023-05-15T13:05:23.427Z,9.05
2023-05-15T13:07:49.840Z,8.82
2023-05-15T13:10:16.407Z,9.70
2023-05-15T13:12:43.530Z,8.82
2023-05-15T13:15:21.702Z,8.85
2023-05-15T13:17:48.123Z,10.50
2023-05-15T13:20:14.583Z,9.70
2023-05-15T13:22:40.955Z,9.15
2023-05-15T13:25:08.601Z,9.23
2023-05-15T13:27:34.875Z,8.75
2023-05-15T13:30:01.171Z,9.57
2023-05-15T13:32:27.478Z,9.30
2023-05-15T13:34:54.958Z,10.35
2023-05-15T13:37:21.326Z,9.80
2023-05-15T13:39:47.621Z,8.73
2023-05-15T13:42:14.043Z,9.80
2023-05-15T13:44:40.552Z,8.85
2023-05-15T13:47:06.848Z,10.65
2023-05-15T13:49:33.239Z,10.82
2023-05-15T13:51:59.597Z,12.75
2023-05-15T13:54:25.997Z,10.85
2023-05-15T13:56:52.247Z,10.07
2023-05-15T13:59:18.497Z,9.75
2023-05-15T14:01:44.979Z,10.80
2023-05-15T14:04:11.271Z,12.57
2023-05-15T14:06:37.616Z,13.70
2023-05-15T14:09:04.629Z,12.63
2023-05-15T14:11:30.950Z,13.18
2023-05-15T14:13:57.242Z,13.20
2023-05-15T14:16:23.539Z,14.68
2023-05-15T14:18:53.310Z,12.02
2023-05-15T14:21:19.644Z,14.77
2023-05-15T14:23:46.066Z,12.05
2023-05-15T14:26:12.419Z,12.43
2023-05-15T14:28:41.012Z,13.48
2023-05-15T14:31:07.665Z,13.02
2023-05-15T14:33:33.911Z,12.35
2023-05-15T14:36:01.434Z,11.57
2023-05-15T14:38:27.780Z,11.32
2023-05-15T14:40:54.217Z,12.32
2023-05-15T14:43:20.811Z,11.23
2023-05-15T14:45:50.983Z,11.02
2023-05-15T14:48:17.508Z,11.68
2023-05-15T14:50:43.945Z,11.25
2023-05-15T14:53:10.293Z,11.57
2023-05-15T14:55:36.544Z,11.70
2023-05-15T14:58:02.809Z,12.05
2023-05-15T15:00:29.092Z,11.93
2023-05-15T15:02:55.505Z,11.98
2023-05-15T15:05:21.972Z,11.93
2023-05-15T15:07:57.480Z,11.60
2023-05-15T15:10:24.059Z,11.63
2023-05-15T15:12:53.125Z,11.52
2023-05-15T15:15:19.737Z,11.70
2023-05-15T15:17:46.065Z,13.52
2023-05-15T15:20:12.963Z,13.25
2023-05-15T15:22:44.975Z,12.02
2023-05-15T15:25:11.306Z,12.35
2023-05-15T15:27:37.725Z,12.63
2023-05-15T15:30:04.968Z,12.13
2023-05-15T15:32:31.358Z,13.10
2023-05-15T15:34:57.726Z,11.52
2023-05-15T15:37:24.098Z,12.05
2023-05-15T15:39:50.535Z,11.68
2023-05-15T15:42:16.790Z,12.95
2023-05-15T15:44:43.086Z,13.40
2023-05-15T15:47:09.340Z,10.18
2023-05-15T15:49:35.663Z,11.63
2023-05-15T15:52:02.139Z,12.85
2023-05-15T15:54:28.959Z,14.32
2023-05-15T15:56:55.294Z,12.65
2023-05-15T15:59:21.678Z,14.15
2023-05-15T16:01:48.231Z,14.10
2023-05-15T16:04:14.732Z,12.75
2023-05-15T16:06:41.109Z,13.20
2023-05-15T16:09:07.382Z,14.10
2023-05-15T16:11:33.698Z,14.60
2023-05-15T16:13:59.968Z,12.68
2023-05-15T16:16:26.347Z,13.27
2023-05-15T16:18:52.777Z,13.18
2023-05-15T16:21:19.108Z,13.32
2023-05-15T16:23:45.624Z,12.40
2023-05-15T16:26:11.949Z,11.27
2023-05-15T16:28:38.346Z,12.20
2023-05-15T16:31:04.870Z,12.40
2023-05-15T16:33:32.312Z,12.52
2023-05-15T16:35:58.674Z,11.73
2023-05-15T16:38:25.030Z,11.57
2023-05-15T16:40:58.550Z,11.00
2023-05-15T16:43:25.016Z,10.60
2023-05-15T16:45:51.318Z,10.30
2023-05-15T16:48:17.628Z,10.40
2023-05-15T16:50:44.188Z,9.50
2023-05-15T16:53:10.598Z,9.70
2023-05-15T16:55:38.013Z,8.75
2023-05-15T16:58:04.279Z,8.55
2023-05-15T17:00:30.733Z,8.23
2023-05-15T17:02:57.180Z,7.25
2023-05-15T17:05:23.602Z,6.93
2023-05-15T17:07:50.100Z,6.65
2023-05-15T17:10:16.489Z,6.63
2023-05-15T17:12:42.882Z,6.05
2023-05-15T17:15:09.345Z,5.47
2023-05-15T17:17:35.850Z,5.80
2023-05-15T17:20:03.062Z,5.28
2023-05-15T17:22:30.100Z,5.13
2023-05-15T17:24:58.869Z,5.50
2023-05-15T17:27:27.496Z,5.13
2023-05-15T17:29:53.922Z,5.20
2023-05-15T17:32:21.429Z,4.80
2023-05-15T17:34:49.582Z,4.90
2023-05-15T17:37:15.963Z,4.60
2023-05-15T17:39:42.574Z,4.95
2023-05-15T17:42:08.963Z,4.57
2023-05-15T17:44:35.306Z,5.15
2023-05-15T17:47:01.755Z,4.75
2023-05-15T17:49:28.156Z,5.13
2023-05-15T17:51:54.439Z,4.88
2023-05-15T17:54:20.839Z,4.40
2023-05-15T17:56:47.776Z,5.35
2023-05-15T17:59:14.139Z,4.68
2023-05-15T18:01:40.559Z,3.92
2023-05-15T18:04:06.976Z,4.35
2023-05-15T18:06:36.210Z,4.07
2023-05-15T18:09:03.094Z,4.05
2023-05-15T18:11:29.506Z,3.92
2023-05-15T18:13:55.817Z,3.72
2023-05-15T18:16:22.287Z,3.88
2023-05-15T18:18:49.369Z,3.25
2023-05-15T18:21:15.989Z,3.13
2023-05-15T18:23:42.322Z,3.90
2023-05-15T18:26:08.660Z,3.60
2023-05-15T18:28:34.987Z,3.58
2023-05-15T18:31:01.292Z,3.17
2023-05-15T18:33:28.135Z,3.00
2023-05-15T18:35:54.429Z,3.45
2023-05-15T18:38:20.988Z,3.08
2023-05-15T18:40:47.472Z,3.10
2023-05-15T18:43:14.149Z,3.30
2023-05-15T18:45:40.554Z,2.80
2023-05-15T18:48:06.905Z,3.17
2023-05-15T18:50:33.373Z,2.72
2023-05-15T18:52:59.684Z,2.53
2023-05-15T18:55:27.564Z,2.75
2023-05-15T18:57:53.982Z,2.45
2023-05-15T19:00:36.470Z,2.70
2023-05-15T19:03:05.284Z,2.92
2023-05-15T19:05:33.650Z,2.40
2023-05-15T19:08:00.047Z,2.80
2023-05-15T19:10:30.364Z,2.20
2023-05-15T19:12:57.215Z,2.78
2023-05-15T19:15:23.997Z,2.42
2023-05-15T19:17:50.623Z,2.10
2023-05-15T19:20:16.952Z,2.25
2023-05-15T19:22:43.200Z,2.33
2023-05-15T19:25:10.160Z,2.40
2023-05-15T19:27:37.515Z,2.67
2023-05-15T19:30:04.539Z,2.58
2023-05-15T19:32:31.003Z,2.42
2023-05-15T19:34:57.380Z,2.53
2023-05-15T19:37:23.658Z,2.75
2023-05-15T19:39:50.093Z,2.45
2023-05-15T19:42:16.390Z,2.30
2023-05-15T19:44:42.629Z,2.55
2023-05-15T19:47:09.703Z,2.45
2023-05-15T19:49:36.048Z,2.58
2023-05-15T19:52:02.333Z,2.53
2023-05-15T19:54:28.725Z,2.78
2023-05-15T19:56:57.639Z,2.42
2023-05-15T19:59:24.009Z,2.67
2023-05-15T20:01:50.496Z,2.55
2023-05-15T20:04:16.881Z,2.45
2023-05-15T20:06:43.148Z,2.47
2023-05-15T20:09:09.668Z,2.75
2023-05-15T20:11:36.114Z,2.25
2023-05-15T20:14:02.442Z,2.50
2023-05-15T20:16:28.778Z,2.20
2023-05-15T20:18:55.552Z,2.42
2023-05-15T20:21:22.072Z,2.88
2023-05-15T20:23:49.194Z,2.88
2023-05-15T20:26:15.490Z,2.63
2023-05-15T20:28:43.748Z,2.65
2023-05-15T20:31:11.235Z,2.42
2023-05-15T20:33:37.813Z,2.22
2023-05-15T20:36:05.251Z,2.35
2023-05-15T20:38:33.734Z,2.40
2023-05-15T20:41:00.044Z,2.47
2023-05-15T20:43:26.655Z,3.03
2023-05-15T20:45:53.040Z,2.72
2023-05-15T20:48:19.398Z,2.50
2023-05-15T20:50:45.764Z,2.50
2023-05-15T20:53:12.066Z,2.17
2023-05-15T20:55:38.454Z,2.38
2023-05-15T20:58:04.759Z,2.30
2023-05-15T21:00:31.229Z,2.67
2023-05-15T21:02:57.586Z,2.28
2023-05-15T21:05:24.052Z,2.60
2023-05-15T21:07:50.372Z,2.30
2023-05-15T21:10:16.641Z,2.15
2023-05-15T21:12:42.920Z,2.70
2023-05-15T21:15:09.589Z,2.47
2023-05-15T21:17:35.916Z,2.20
2023-05-15T21:20:04.061Z,2.00
2023-05-15T21:22:30.375Z,2.30
2023-05-15T21:24:56.621Z,2.13
2023-05-15T21:27:23.000Z,2.20
2023-05-15T21:29:49.281Z,2.30
2023-05-15T21:32:15.637Z,2.40
2023-05-15T21:34:41.951Z,1.92
2023-05-15T21:37:08.187Z,2.17
2023-05-15T21:39:34.494Z,2.20
2023-05-15T21:42:00.782Z,2.20
2023-05-15T21:44:27.074Z,2.55
2023-05-15T21:46:53.448Z,2.40
2023-05-15T21:49:19.846Z,1.98
2023-05-15T21:51:46.452Z,2.00
2023-05-15T21:54:12.785Z,2.70
2023-05-15T21:56:39.133Z,2.65
2023-05-15T21:59:05.437Z,1.92
2023-05-15T22:01:31.817Z,2.00
2023-05-15T22:03:58.282Z,2.15
2023-05-15T22:06:24.705Z,2.30
2023-05-15T22:08:51.090Z,1.92
2023-05-15T22:11:17.400Z,1.85
2023-05-15T22:13:43.765Z,2.08
2023-05-15T22:16:10.172Z,1.70
2023-05-15T22:18:37.700Z,1.70
2023-05-15T22:21:04.064Z,1.77
2023-05-15T22:23:30.393Z,2.33
2023-05-15T22:25:56.670Z,1.80
2023-05-15T22:28:23.038Z,1.90
2023-05-15T22:30:49.998Z,1.35
2023-05-15T22:33:16.742Z,1.83
2023-05-15T22:35:43.015Z,1.73
2023-05-15T22:38:09.616Z,1.50
2023-05-15T22:40:35.883Z,2.15
2023-05-15T22:43:02.635Z,1.70
2023-05-15T22:45:28.970Z,1.20
2023-05-15T22:47:55.527Z,1.50
2023-05-15T22:50:21.888Z,1.50
2023-05-15T22:52:48.309Z,1.30
2023-05-15T22:55:14.645Z,1.38
2023-05-15T22:57:40.976Z,1.30
2023-05-15T23:00:08.022Z,1.40
2023-05-15T23:02:34.721Z,1.15
2023-05-15T23:05:01.664Z,1.25
2023-05-15T23:07:27.969Z,1.13
2023-05-15T23:09:54.449Z,1.10
2023-05-15T23:12:21.028Z,1.27
2023-05-15T23:14:47.372Z,1.05
2023-05-15T23:17:13.716Z,1.35
2023-05-15T23:19:40.067Z,1.05
2023-05-15T23:22:06.391Z,0.85
2023-05-15T23:24:32.701Z,0.90
2023-05-15T23:26:59.037Z,0.90
2023-05-15T23:29:25.564Z,1.00
2023-05-15T23:31:51.928Z,1.13
2023-05-15T23:34:18.254Z,1.13
2023-05-15T23:36:44.502Z,0.98
2023-05-15T23:39:10.852Z,1.17
2023-05-15T23:41:37.193Z,1.02
2023-05-15T23:44:03.639Z,1.30
2023-05-15T23:46:29.982Z,1.15
2023-05-15T23:48:56.307Z,1.25
2023-05-15T23:51:22.724Z,1.08
2023-05-15T23:53:49.263Z,1.00
2023-05-15T23:56:15.772Z,0.73
2023-05-15T23:58:42.161Z,0.90
